sensor_id;sensor_type;location;lat;lon;timestamp;P1;durP1;ratioP1;P2;durP2;ratioP2
6725;SDS011;3400;48.506;11.692;2023-07-13T00:02:09;8.53;;;6.20;;
6725;SDS011;3400;48.506;11.692;2023-07-13T00:04:37;9.43;;;6.20;;
6725;SDS011;3400;48.506;11.692;2023-07-13T00:07:05;7.20;;;6.50;;
6725;SDS011;3400;48.506;11.692;2023-07-13T00:09:33;9.73;;;6.70;;
6725;SDS011;3400;48.506;11.692;2023-07-13T00:12:01;8.50;;;6.83;;
6725;SDS011;3400;48.506;11.692;2023-07-13T00:14:29;9.93;;;6.63;;
6725;SDS011;3400;48.506;11.692;2023-07-13T00:16:56;7.97;;;7.17;;
6725;SDS011;3400;48.506;11.692;2023-07-13T00:19:27;6.87;;;6.17;;
6725;SDS011;3400;48.506;11.692;2023-07-13T00:21:55;8.83;;;7.37;;
6725;SDS011;3400;48.506;11.692;2023-07-13T00:24:23;8.53;;;6.93;;
6725;SDS011;3400;48.506;11.692;2023-07-13T00:26:53;9.30;;;7.60;;
6725;SDS011;3400;48.506;11.692;2023-07-13T00:29:21;12.30;;;7.73;;
6725;SDS011;3400;48.506;11.692;2023-07-13T00:31:49;12.57;;;7.33;;
6725;SDS011;3400;48.506;11.692;2023-07-13T00:34:16;9.60;;;7.47;;
6725;SDS011;3400;48.506;11.692;2023-07-13T00:36:45;9.67;;;6.97;;
6725;SDS011;3400;48.506;11.692;2023-07-13T00:39:13;10.77;;;7.20;;
6725;SDS011;3400;48.506;11.692;2023-07-13T00:41:41;9.50;;;7.73;;
6725;SDS011;3400;48.506;11.692;2023-07-13T00:44:10;11.67;;;7.23;;
6725;SDS011;3400;48.506;11.692;2023-07-13T00:46:41;9.57;;;6.47;;
6725;SDS011;3400;48.506;11.692;2023-07-13T00:49:10;10.67;;;6.50;;
6725;SDS011;3400;48.506;11.692;2023-07-13T00:51:39;7.47;;;6.77;;
6725;SDS011;3400;48.506;11.692;2023-07-13T00:54:11;8.63;;;7.40;;
6725;SDS011;3400;48.506;11.692;2023-07-13T00:56:39;9.63;;;7.23;;
6725;SDS011;3400;48.506;11.692;2023-07-13T00:59:08;12.77;;;7.73;;
6725;SDS011;3400;48.506;11.692;2023-07-13T01:01:36;12.10;;;7.10;;
6725;SDS011;3400;48.506;11.692;2023-07-13T01:04:04;7.63;;;6.83;;
6725;SDS011;3400;48.506;11.692;2023-07-13T01:06:34;11.03;;;7.73;;
6725;SDS011;3400;48.506;11.692;2023-07-13T01:09:01;10.10;;;6.63;;
6725;SDS011;3400;48.506;11.692;2023-07-13T01:11:32;10.57;;;7.10;;
6725;SDS011;3400;48.506;11.692;2023-07-13T01:14:00;9.60;;;7.33;;
6725;SDS011;3400;48.506;11.692;2023-07-13T01:16:33;8.27;;;7.30;;
6725;SDS011;3400;48.506;11.692;2023-07-13T01:19:02;9.10;;;7.07;;
6725;SDS011;3400;48.506;11.692;2023-07-13T01:21:32;7.47;;;6.77;;
6725;SDS011;3400;48.506;11.692;2023-07-13T01:24:00;10.63;;;7.27;;
6725;SDS011;3400;48.506;11.692;2023-07-13T01:26:28;9.63;;;6.80;;
6725;SDS011;3400;48.506;11.692;2023-07-13T01:28:56;10.87;;;6.97;;
6725;SDS011;3400;48.506;11.692;2023-07-13T01:31:24;12.03;;;7.23;;
6725;SDS011;3400;48.506;11.692;2023-07-13T01:33:51;8.30;;;6.90;;
6725;SDS011;3400;48.506;11.692;2023-07-13T01:36:20;8.53;;;6.50;;
6725;SDS011;3400;48.506;11.692;2023-07-13T01:38:49;13.43;;;7.80;;
6725;SDS011;3400;48.506;11.692;2023-07-13T01:41:17;11.53;;;6.70;;
6725;SDS011;3400;48.506;11.692;2023-07-13T01:43:45;10.67;;;6.80;;
6725;SDS011;3400;48.506;11.692;2023-07-13T01:46:13;7.60;;;6.70;;
6725;SDS011;3400;48.506;11.692;2023-07-13T01:48:41;9.13;;;7.03;;
6725;SDS011;3400;48.506;11.692;2023-07-13T01:51:08;12.63;;;7.03;;
6725;SDS011;3400;48.506;11.692;2023-07-13T01:53:36;7.77;;;6.73;;
6725;SDS011;3400;48.506;11.692;2023-07-13T01:56:05;12.33;;;7.17;;
6725;SDS011;3400;48.506;11.692;2023-07-13T01:58:33;9.13;;;6.57;;
6725;SDS011;3400;48.506;11.692;2023-07-13T02:01:01;10.27;;;7.17;;
6725;SDS011;3400;48.506;11.692;2023-07-13T02:03:28;10.00;;;7.10;;
6725;SDS011;3400;48.506;11.692;2023-07-13T02:05:58;13.00;;;7.57;;
6725;SDS011;3400;48.506;11.692;2023-07-13T02:08:25;10.93;;;7.73;;
6725;SDS011;3400;48.506;11.692;2023-07-13T02:10:53;10.13;;;7.47;;
6725;SDS011;3400;48.506;11.692;2023-07-13T02:13:22;8.40;;;7.60;;
6725;SDS011;3400;48.506;11.692;2023-07-13T02:15:50;14.07;;;7.67;;
6725;SDS011;3400;48.506;11.692;2023-07-13T02:18:18;11.33;;;7.73;;
6725;SDS011;3400;48.506;11.692;2023-07-13T02:20:45;12.33;;;8.17;;
6725;SDS011;3400;48.506;11.692;2023-07-13T02:23:13;11.90;;;7.37;;
6725;SDS011;3400;48.506;11.692;2023-07-13T02:25:41;14.10;;;7.57;;
6725;SDS011;3400;48.506;11.692;2023-07-13T02:28:09;9.67;;;6.83;;
6725;SDS011;3400;48.506;11.692;2023-07-13T02:30:38;12.47;;;7.17;;
6725;SDS011;3400;48.506;11.692;2023-07-13T02:33:05;9.63;;;7.63;;
6725;SDS011;3400;48.506;11.692;2023-07-13T02:35:33;8.60;;;6.87;;
6725;SDS011;3400;48.506;11.692;2023-07-13T02:38:01;10.27;;;7.27;;
6725;SDS011;3400;48.506;11.692;2023-07-13T02:40:30;10.57;;;7.93;;
6725;SDS011;3400;48.506;11.692;2023-07-13T02:42:59;12.73;;;7.37;;
6725;SDS011;3400;48.506;11.692;2023-07-13T02:45:26;12.03;;;7.87;;
6725;SDS011;3400;48.506;11.692;2023-07-13T02:47:56;11.53;;;7.93;;
6725;SDS011;3400;48.506;11.692;2023-07-13T02:50:23;14.37;;;7.63;;
6725;SDS011;3400;48.506;11.692;2023-07-13T02:52:51;11.37;;;8.60;;
6725;SDS011;3400;48.506;11.692;2023-07-13T02:55:18;12.30;;;8.27;;
6725;SDS011;3400;48.506;11.692;2023-07-13T02:57:46;12.87;;;8.33;;
6725;SDS011;3400;48.506;11.692;2023-07-13T03:00:14;11.67;;;9.17;;
6725;SDS011;3400;48.506;11.692;2023-07-13T03:02:42;12.63;;;8.60;;
6725;SDS011;3400;48.506;11.692;2023-07-13T03:05:11;15.30;;;8.77;;
6725;SDS011;3400;48.506;11.692;2023-07-13T03:07:40;10.80;;;9.27;;
6725;SDS011;3400;48.506;11.692;2023-07-13T03:10:09;11.97;;;8.80;;
6725;SDS011;3400;48.506;11.692;2023-07-13T03:12:43;10.93;;;9.03;;
6725;SDS011;3400;48.506;11.692;2023-07-13T03:15:19;15.73;;;9.23;;
6725;SDS011;3400;48.506;11.692;2023-07-13T03:17:48;12.70;;;8.87;;
6725;SDS011;3400;48.506;11.692;2023-07-13T03:20:17;13.73;;;9.07;;
6725;SDS011;3400;48.506;11.692;2023-07-13T03:22:45;14.97;;;9.80;;
6725;SDS011;3400;48.506;11.692;2023-07-13T03:25:13;12.33;;;9.87;;
6725;SDS011;3400;48.506;11.692;2023-07-13T03:27:42;14.97;;;8.93;;
6725;SDS011;3400;48.506;11.692;2023-07-13T03:30:10;11.93;;;8.73;;
6725;SDS011;3400;48.506;11.692;2023-07-13T03:32:37;13.87;;;9.10;;
6725;SDS011;3400;48.506;11.692;2023-07-13T03:35:05;17.50;;;9.90;;
6725;SDS011;3400;48.506;11.692;2023-07-13T03:37:35;15.43;;;10.67;;
6725;SDS011;3400;48.506;11.692;2023-07-13T03:40:10;13.63;;;10.47;;
6725;SDS011;3400;48.506;11.692;2023-07-13T03:42:37;10.60;;;9.50;;
6725;SDS011;3400;48.506;11.692;2023-07-13T03:45:07;18.20;;;10.30;;
6725;SDS011;3400;48.506;11.692;2023-07-13T03:47:35;14.87;;;9.87;;
6725;SDS011;3400;48.506;11.692;2023-07-13T03:50:04;21.30;;;9.70;;
6725;SDS011;3400;48.506;11.692;2023-07-13T03:52:32;15.37;;;9.30;;
6725;SDS011;3400;48.506;11.692;2023-07-13T03:55:01;17.37;;;10.23;;
6725;SDS011;3400;48.506;11.692;2023-07-13T03:57:29;13.33;;;9.60;;
6725;SDS011;3400;48.506;11.692;2023-07-13T03:59:58;12.67;;;8.07;;
6725;SDS011;3400;48.506;11.692;2023-07-13T04:02:26;10.27;;;8.27;;
6725;SDS011;3400;48.506;11.692;2023-07-13T04:04:53;11.33;;;8.97;;
6725;SDS011;3400;48.506;11.692;2023-07-13T04:07:23;12.80;;;9.47;;
6725;SDS011;3400;48.506;11.692;2023-07-13T04:09:52;12.87;;;9.50;;
6725;SDS011;3400;48.506;11.692;2023-07-13T04:12:21;13.67;;;8.23;;
6725;SDS011;3400;48.506;11.692;2023-07-13T04:14:49;12.30;;;7.37;;
6725;SDS011;3400;48.506;11.692;2023-07-13T04:17:16;16.07;;;7.33;;
6725;SDS011;3400;48.506;11.692;2023-07-13T04:19:45;11.73;;;6.70;;
6725;SDS011;3400;48.506;11.692;2023-07-13T04:22:12;13.80;;;7.17;;
6725;SDS011;3400;48.506;11.692;2023-07-13T04:24:40;7.87;;;7.03;;
6725;SDS011;3400;48.506;11.692;2023-07-13T04:27:08;13.33;;;7.53;;
6725;SDS011;3400;48.506;11.692;2023-07-13T04:29:37;13.47;;;7.17;;
6725;SDS011;3400;48.506;11.692;2023-07-13T04:32:05;9.37;;;6.30;;
6725;SDS011;3400;48.506;11.692;2023-07-13T04:34:32;10.40;;;6.20;;
6725;SDS011;3400;48.506;11.692;2023-07-13T04:37:00;15.40;;;7.37;;
6725;SDS011;3400;48.506;11.692;2023-07-13T04:39:28;11.03;;;6.77;;
6725;SDS011;3400;48.506;11.692;2023-07-13T04:41:55;10.47;;;7.07;;
6725;SDS011;3400;48.506;11.692;2023-07-13T04:44:23;12.43;;;7.43;;
6725;SDS011;3400;48.506;11.692;2023-07-13T04:46:52;10.97;;;6.10;;
6725;SDS011;3400;48.506;11.692;2023-07-13T04:49:20;14.00;;;6.90;;
6725;SDS011;3400;48.506;11.692;2023-07-13T04:51:48;14.03;;;6.23;;
6725;SDS011;3400;48.506;11.692;2023-07-13T04:54:15;11.97;;;7.80;;
6725;SDS011;3400;48.506;11.692;2023-07-13T04:56:43;12.97;;;7.60;;
6725;SDS011;3400;48.506;11.692;2023-07-13T04:59:11;11.73;;;6.00;;
6725;SDS011;3400;48.506;11.692;2023-07-13T05:01:38;13.43;;;7.57;;
6725;SDS011;3400;48.506;11.692;2023-07-13T05:04:08;12.03;;;6.90;;
6725;SDS011;3400;48.506;11.692;2023-07-13T05:06:36;7.87;;;7.00;;
6725;SDS011;3400;48.506;11.692;2023-07-13T05:09:04;12.23;;;6.60;;
6725;SDS011;3400;48.506;11.692;2023-07-13T05:11:33;8.00;;;5.93;;
6725;SDS011;3400;48.506;11.692;2023-07-13T05:14:00;6.20;;;5.60;;
6725;SDS011;3400;48.506;11.692;2023-07-13T05:16:28;9.30;;;5.10;;
6725;SDS011;3400;48.506;11.692;2023-07-13T05:18:57;8.73;;;5.17;;
6725;SDS011;3400;48.506;11.692;2023-07-13T05:21:26;6.00;;;4.63;;
6725;SDS011;3400;48.506;11.692;2023-07-13T05:23:54;8.17;;;4.80;;
6725;SDS011;3400;48.506;11.692;2023-07-13T05:26:22;10.03;;;5.00;;
6725;SDS011;3400;48.506;11.692;2023-07-13T05:28:49;7.33;;;3.93;;
6725;SDS011;3400;48.506;11.692;2023-07-13T05:31:17;9.60;;;4.17;;
6725;SDS011;3400;48.506;11.692;2023-07-13T05:33:45;5.57;;;3.97;;
6725;SDS011;3400;48.506;11.692;2023-07-13T05:36:12;4.40;;;3.90;;
6725;SDS011;3400;48.506;11.692;2023-07-13T05:38:41;10.80;;;4.43;;
6725;SDS011;3400;48.506;11.692;2023-07-13T05:41:10;11.00;;;4.37;;
6725;SDS011;3400;48.506;11.692;2023-07-13T05:43:37;4.10;;;3.70;;
6725;SDS011;3400;48.506;11.692;2023-07-13T05:46:05;6.80;;;4.00;;
6725;SDS011;3400;48.506;11.692;2023-07-13T05:48:32;5.47;;;4.03;;
6725;SDS011;3400;48.506;11.692;2023-07-13T05:51:00;5.17;;;4.63;;
6725;SDS011;3400;48.506;11.692;2023-07-13T05:53:28;10.83;;;4.07;;
6725;SDS011;3400;48.506;11.692;2023-07-13T05:55:57;8.13;;;4.17;;
6725;SDS011;3400;48.506;11.692;2023-07-13T05:58:25;5.40;;;4.30;;
6725;SDS011;3400;48.506;11.692;2023-07-13T06:00:58;7.23;;;3.90;;
6725;SDS011;3400;48.506;11.692;2023-07-13T06:03:26;6.90;;;4.23;;
6725;SDS011;3400;48.506;11.692;2023-07-13T06:05:54;8.53;;;4.37;;
6725;SDS011;3400;48.506;11.692;2023-07-13T06:08:21;9.03;;;4.17;;
6725;SDS011;3400;48.506;11.692;2023-07-13T06:10:49;6.77;;;3.90;;
6725;SDS011;3400;48.506;11.692;2023-07-13T06:13:18;10.60;;;4.00;;
6725;SDS011;3400;48.506;11.692;2023-07-13T06:15:47;5.60;;;4.10;;
6725;SDS011;3400;48.506;11.692;2023-07-13T06:18:15;7.40;;;3.80;;
6725;SDS011;3400;48.506;11.692;2023-07-13T06:20:43;5.27;;;3.50;;
6725;SDS011;3400;48.506;11.692;2023-07-13T06:23:11;5.50;;;3.30;;
6725;SDS011;3400;48.506;11.692;2023-07-13T06:25:39;4.40;;;4.00;;
6725;SDS011;3400;48.506;11.692;2023-07-13T06:28:07;6.70;;;3.57;;
6725;SDS011;3400;48.506;11.692;2023-07-13T06:30:38;11.00;;;3.83;;
6725;SDS011;3400;48.506;11.692;2023-07-13T06:33:06;8.50;;;2.93;;
6725;SDS011;3400;48.506;11.692;2023-07-13T06:35:34;3.87;;;3.17;;
6725;SDS011;3400;48.506;11.692;2023-07-13T06:38:02;5.87;;;3.20;;
6725;SDS011;3400;48.506;11.692;2023-07-13T06:40:30;5.83;;;3.13;;
6725;SDS011;3400;48.506;11.692;2023-07-13T06:42:58;3.87;;;3.13;;
6725;SDS011;3400;48.506;11.692;2023-07-13T06:45:25;2.73;;;2.53;;
6725;SDS011;3400;48.506;11.692;2023-07-13T06:47:54;4.80;;;2.93;;
6725;SDS011;3400;48.506;11.692;2023-07-13T06:50:22;5.77;;;2.80;;
6725;SDS011;3400;48.506;11.692;2023-07-13T06:52:50;4.57;;;2.70;;
6725;SDS011;3400;48.506;11.692;2023-07-13T06:55:18;3.73;;;2.80;;
6725;SDS011;3400;48.506;11.692;2023-07-13T06:57:46;6.93;;;3.23;;
6725;SDS011;3400;48.506;11.692;2023-07-13T07:00:14;8.03;;;3.03;;
6725;SDS011;3400;48.506;11.692;2023-07-13T07:02:42;5.67;;;2.90;;
6725;SDS011;3400;48.506;11.692;2023-07-13T07:05:11;6.97;;;3.33;;
6725;SDS011;3400;48.506;11.692;2023-07-13T07:07:38;4.17;;;2.90;;
6725;SDS011;3400;48.506;11.692;2023-07-13T07:10:06;5.70;;;2.90;;
6725;SDS011;3400;48.506;11.692;2023-07-13T07:12:34;2.77;;;2.57;;
6725;SDS011;3400;48.506;11.692;2023-07-13T07:15:02;4.57;;;2.60;;
6725;SDS011;3400;48.506;11.692;2023-07-13T07:17:30;6.23;;;2.93;;
6725;SDS011;3400;48.506;11.692;2023-07-13T07:19:58;5.93;;;2.67;;
6725;SDS011;3400;48.506;11.692;2023-07-13T07:22:27;6.90;;;3.00;;
6725;SDS011;3400;48.506;11.692;2023-07-13T07:24:55;5.30;;;2.87;;
6725;SDS011;3400;48.506;11.692;2023-07-13T07:27:23;4.13;;;3.03;;
6725;SDS011;3400;48.506;11.692;2023-07-13T07:29:51;4.97;;;2.53;;
6725;SDS011;3400;48.506;11.692;2023-07-13T07:32:19;5.17;;;2.47;;
6725;SDS011;3400;48.506;11.692;2023-07-13T07:34:47;7.43;;;2.73;;
6725;SDS011;3400;48.506;11.692;2023-07-13T07:37:15;8.03;;;2.50;;
6725;SDS011;3400;48.506;11.692;2023-07-13T07:39:44;7.73;;;2.47;;
6725;SDS011;3400;48.506;11.692;2023-07-13T07:42:12;5.03;;;2.70;;
6725;SDS011;3400;48.506;11.692;2023-07-13T07:44:40;3.77;;;2.47;;
6725;SDS011;3400;48.506;11.692;2023-07-13T07:47:08;5.83;;;2.60;;
6725;SDS011;3400;48.506;11.692;2023-07-13T07:49:36;8.73;;;2.87;;
6725;SDS011;3400;48.506;11.692;2023-07-13T07:52:04;4.53;;;2.47;;
6725;SDS011;3400;48.506;11.692;2023-07-13T07:54:32;8.57;;;2.73;;
6725;SDS011;3400;48.506;11.692;2023-07-13T07:57:01;4.53;;;2.70;;
6725;SDS011;3400;48.506;11.692;2023-07-13T07:59:29;3.73;;;2.57;;
6725;SDS011;3400;48.506;11.692;2023-07-13T08:01:57;2.23;;;2.13;;
6725;SDS011;3400;48.506;11.692;2023-07-13T08:04:24;5.00;;;2.50;;
6725;SDS011;3400;48.506;11.692;2023-07-13T08:06:52;5.80;;;2.40;;
6725;SDS011;3400;48.506;11.692;2023-07-13T08:09:21;5.63;;;2.17;;
6725;SDS011;3400;48.506;11.692;2023-07-13T08:11:49;3.23;;;2.30;;
6725;SDS011;3400;48.506;11.692;2023-07-13T08:14:19;3.20;;;2.37;;
6725;SDS011;3400;48.506;11.692;2023-07-13T08:16:47;5.33;;;2.90;;
6725;SDS011;3400;48.506;11.692;2023-07-13T08:19:15;7.57;;;2.60;;
6725;SDS011;3400;48.506;11.692;2023-07-13T08:21:42;5.23;;;2.30;;
6725;SDS011;3400;48.506;11.692;2023-07-13T08:24:10;3.20;;;2.17;;
6725;SDS011;3400;48.506;11.692;2023-07-13T08:26:38;3.90;;;2.07;;
6725;SDS011;3400;48.506;11.692;2023-07-13T08:29:05;3.53;;;2.07;;
6725;SDS011;3400;48.506;11.692;2023-07-13T08:31:34;5.33;;;2.37;;
6725;SDS011;3400;48.506;11.692;2023-07-13T08:34:02;6.37;;;2.40;;
6725;SDS011;3400;48.506;11.692;2023-07-13T08:36:30;3.70;;;2.00;;
6725;SDS011;3400;48.506;11.692;2023-07-13T08:38:57;6.27;;;3.97;;
6725;SDS011;3400;48.506;11.692;2023-07-13T08:41:25;5.20;;;3.17;;
6725;SDS011;3400;48.506;11.692;2023-07-13T08:43:56;2.93;;;2.50;;
6725;SDS011;3400;48.506;11.692;2023-07-13T08:46:24;2.73;;;2.10;;
6725;SDS011;3400;48.506;11.692;2023-07-13T08:48:55;3.13;;;1.70;;
6725;SDS011;3400;48.506;11.692;2023-07-13T08:51:25;5.40;;;2.00;;
6725;SDS011;3400;48.506;11.692;2023-07-13T08:53:55;2.20;;;2.00;;
6725;SDS011;3400;48.506;11.692;2023-07-13T08:56:25;3.53;;;1.80;;
6725;SDS011;3400;48.506;11.692;2023-07-13T08:58:55;4.90;;;1.90;;
6725;SDS011;3400;48.506;11.692;2023-07-13T09:01:24;6.27;;;2.50;;
6725;SDS011;3400;48.506;11.692;2023-07-13T09:03:58;3.03;;;2.30;;
6725;SDS011;3400;48.506;11.692;2023-07-13T09:06:27;4.87;;;2.30;;
6725;SDS011;3400;48.506;11.692;2023-07-13T09:09:00;5.67;;;1.83;;
6725;SDS011;3400;48.506;11.692;2023-07-13T09:11:35;3.20;;;2.07;;
6725;SDS011;3400;48.506;11.692;2023-07-13T09:14:06;3.33;;;1.80;;
6725;SDS011;3400;48.506;11.692;2023-07-13T09:16:38;4.57;;;1.93;;
6725;SDS011;3400;48.506;11.692;2023-07-13T09:19:09;4.50;;;2.13;;
6725;SDS011;3400;48.506;11.692;2023-07-13T09:21:39;7.17;;;2.07;;
6725;SDS011;3400;48.506;11.692;2023-07-13T09:24:27;3.90;;;1.80;;
6725;SDS011;3400;48.506;11.692;2023-07-13T09:26:55;5.90;;;2.33;;
6725;SDS011;3400;48.506;11.692;2023-07-13T09:29:26;4.97;;;2.20;;
6725;SDS011;3400;48.506;11.692;2023-07-13T09:31:55;3.00;;;2.17;;
6725;SDS011;3400;48.506;11.692;2023-07-13T09:34:28;6.13;;;1.80;;
6725;SDS011;3400;48.506;11.692;2023-07-13T09:36:56;9.10;;;2.30;;
6725;SDS011;3400;48.506;11.692;2023-07-13T09:39:24;2.20;;;1.70;;
6725;SDS011;3400;48.506;11.692;2023-07-13T09:41:54;7.03;;;2.10;;
6725;SDS011;3400;48.506;11.692;2023-07-13T09:44:28;4.50;;;1.97;;
6725;SDS011;3400;48.506;11.692;2023-07-13T09:46:57;6.73;;;2.33;;
6725;SDS011;3400;48.506;11.692;2023-07-13T09:49:35;6.63;;;2.40;;
6725;SDS011;3400;48.506;11.692;2023-07-13T09:52:04;5.10;;;2.20;;
6725;SDS011;3400;48.506;11.692;2023-07-13T09:54:33;5.67;;;1.97;;
6725;SDS011;3400;48.506;11.692;2023-07-13T09:57:03;3.70;;;2.20;;
6725;SDS011;3400;48.506;11.692;2023-07-13T09:59:40;8.90;;;2.00;;
6725;SDS011;3400;48.506;11.692;2023-07-13T10:02:22;6.53;;;2.07;;
6725;SDS011;3400;48.506;11.692;2023-07-13T10:04:55;4.17;;;1.70;;
6725;SDS011;3400;48.506;11.692;2023-07-13T10:07:23;4.07;;;1.70;;
6725;SDS011;3400;48.506;11.692;2023-07-13T10:09:52;2.07;;;1.37;;
6725;SDS011;3400;48.506;11.692;2023-07-13T10:12:21;5.50;;;1.73;;
6725;SDS011;3400;48.506;11.692;2023-07-13T10:14:54;3.63;;;1.43;;
6725;SDS011;3400;48.506;11.692;2023-07-13T10:17:26;2.40;;;1.50;;
6725;SDS011;3400;48.506;11.692;2023-07-13T10:19:58;5.60;;;1.50;;
6725;SDS011;3400;48.506;11.692;2023-07-13T10:22:30;3.13;;;1.50;;
6725;SDS011;3400;48.506;11.692;2023-07-13T10:25:00;3.80;;;1.53;;
6725;SDS011;3400;48.506;11.692;2023-07-13T10:27:29;4.30;;;1.60;;
6725;SDS011;3400;48.506;11.692;2023-07-13T10:30:01;1.40;;;1.30;;
6725;SDS011;3400;48.506;11.692;2023-07-13T10:32:29;1.93;;;1.40;;
6725;SDS011;3400;48.506;11.692;2023-07-13T10:34:58;4.80;;;1.50;;
6725;SDS011;3400;48.506;11.692;2023-07-13T10:37:29;3.50;;;1.80;;
6725;SDS011;3400;48.506;11.692;2023-07-13T10:39:58;1.70;;;1.10;;
6725;SDS011;3400;48.506;11.692;2023-07-13T10:42:27;1.40;;;1.27;;
6725;SDS011;3400;48.506;11.692;2023-07-13T10:44:55;1.83;;;1.47;;
6725;SDS011;3400;48.506;11.692;2023-07-13T10:47:23;2.17;;;1.60;;
6725;SDS011;3400;48.506;11.692;2023-07-13T10:49:52;4.17;;;1.30;;
6725;SDS011;3400;48.506;11.692;2023-07-13T10:52:42;1.73;;;1.10;;
6725;SDS011;3400;48.506;11.692;2023-07-13T10:57:54;18.10;;;2.87;;
6725;SDS011;3400;48.506;11.692;2023-07-13T11:00:22;3.77;;;1.37;;
6725;SDS011;3400;48.506;11.692;2023-07-13T11:02:55;6.30;;;1.63;;
6725;SDS011;3400;48.506;11.692;2023-07-13T11:05:26;1.87;;;1.20;;
6725;SDS011;3400;48.506;11.692;2023-07-13T11:07:56;3.13;;;1.37;;
6725;SDS011;3400;48.506;11.692;2023-07-13T11:13:35;2.77;;;1.43;;
6725;SDS011;3400;48.506;11.692;2023-07-13T11:16:11;1.70;;;1.47;;
6725;SDS011;3400;48.506;11.692;2023-07-13T11:18:39;2.40;;;1.90;;
6725;SDS011;3400;48.506;11.692;2023-07-13T11:21:14;1.47;;;1.37;;
6725;SDS011;3400;48.506;11.692;2023-07-13T11:23:44;2.53;;;1.40;;
6725;SDS011;3400;48.506;11.692;2023-07-13T11:26:37;2.43;;;1.50;;
6725;SDS011;3400;48.506;11.692;2023-07-13T11:29:07;3.83;;;1.70;;
6725;SDS011;3400;48.506;11.692;2023-07-13T11:31:35;2.57;;;1.50;;
6725;SDS011;3400;48.506;11.692;2023-07-13T11:34:06;3.20;;;1.63;;
6725;SDS011;3400;48.506;11.692;2023-07-13T11:36:42;2.17;;;1.50;;
6725;SDS011;3400;48.506;11.692;2023-07-13T11:39:15;4.77;;;1.60;;
6725;SDS011;3400;48.506;11.692;2023-07-13T11:41:45;1.87;;;1.40;;
6725;SDS011;3400;48.506;11.692;2023-07-13T11:44:14;3.77;;;1.27;;
6725;SDS011;3400;48.506;11.692;2023-07-13T11:46:46;5.60;;;1.80;;
6725;SDS011;3400;48.506;11.692;2023-07-13T11:49:17;3.20;;;1.33;;
6725;SDS011;3400;48.506;11.692;2023-07-13T11:51:45;3.53;;;1.57;;
6725;SDS011;3400;48.506;11.692;2023-07-13T11:54:23;2.33;;;1.40;;
6725;SDS011;3400;48.506;11.692;2023-07-13T11:56:52;3.80;;;1.70;;
6725;SDS011;3400;48.506;11.692;2023-07-13T11:59:20;3.23;;;1.20;;
6725;SDS011;3400;48.506;11.692;2023-07-13T12:01:49;2.93;;;1.37;;
6725;SDS011;3400;48.506;11.692;2023-07-13T12:04:20;2.67;;;1.40;;
6725;SDS011;3400;48.506;11.692;2023-07-13T12:07:02;3.43;;;1.60;;
6725;SDS011;3400;48.506;11.692;2023-07-13T12:09:32;3.23;;;1.40;;
6725;SDS011;3400;48.506;11.692;2023-07-13T12:12:02;3.17;;;1.70;;
6725;SDS011;3400;48.506;11.692;2023-07-13T12:14:33;2.17;;;1.20;;
6725;SDS011;3400;48.506;11.692;2023-07-13T12:17:04;11.93;;;1.60;;
6725;SDS011;3400;48.506;11.692;2023-07-13T12:19:36;2.70;;;1.53;;
6725;SDS011;3400;48.506;11.692;2023-07-13T12:22:04;4.83;;;1.47;;
6725;SDS011;3400;48.506;11.692;2023-07-13T12:24:33;3.10;;;1.60;;
6725;SDS011;3400;48.506;11.692;2023-07-13T12:27:02;2.53;;;1.60;;
6725;SDS011;3400;48.506;11.692;2023-07-13T12:29:31;4.00;;;1.83;;
6725;SDS011;3400;48.506;11.692;2023-07-13T12:31:59;5.33;;;4.80;;
6725;SDS011;3400;48.506;11.692;2023-07-13T12:34:27;1.97;;;1.60;;
6725;SDS011;3400;48.506;11.692;2023-07-13T12:36:55;2.03;;;1.73;;
6725;SDS011;3400;48.506;11.692;2023-07-13T12:39:24;2.97;;;1.30;;
6725;SDS011;3400;48.506;11.692;2023-07-13T12:41:54;5.60;;;1.63;;
6725;SDS011;3400;48.506;11.692;2023-07-13T12:44:39;4.00;;;1.73;;
6725;SDS011;3400;48.506;11.692;2023-07-13T12:47:11;2.70;;;1.70;;
6725;SDS011;3400;48.506;11.692;2023-07-13T12:49:40;2.10;;;1.53;;
6725;SDS011;3400;48.506;11.692;2023-07-13T12:52:10;2.47;;;1.50;;
6725;SDS011;3400;48.506;11.692;2023-07-13T12:54:40;3.50;;;1.70;;
6725;SDS011;3400;48.506;11.692;2023-07-13T12:57:12;3.00;;;1.60;;
6725;SDS011;3400;48.506;11.692;2023-07-13T12:59:43;6.57;;;1.73;;
6725;SDS011;3400;48.506;11.692;2023-07-13T13:02:18;3.57;;;1.57;;
6725;SDS011;3400;48.506;11.692;2023-07-13T13:04:48;2.90;;;1.60;;
6725;SDS011;3400;48.506;11.692;2023-07-13T13:07:16;2.93;;;1.60;;
6725;SDS011;3400;48.506;11.692;2023-07-13T13:09:45;3.93;;;2.07;;
6725;SDS011;3400;48.506;11.692;2023-07-13T13:12:15;2.00;;;1.70;;
6725;SDS011;3400;48.506;11.692;2023-07-13T13:14:43;4.43;;;1.83;;
6725;SDS011;3400;48.506;11.692;2023-07-13T13:17:16;2.60;;;1.83;;
6725;SDS011;3400;48.506;11.692;2023-07-13T13:19:45;2.03;;;1.40;;
6725;SDS011;3400;48.506;11.692;2023-07-13T13:22:13;2.07;;;1.20;;
6725;SDS011;3400;48.506;11.692;2023-07-13T13:24:41;3.37;;;1.60;;
6725;SDS011;3400;48.506;11.692;2023-07-13T13:27:12;3.77;;;1.93;;
6725;SDS011;3400;48.506;11.692;2023-07-13T13:29:42;3.20;;;1.57;;
6725;SDS011;3400;48.506;11.692;2023-07-13T13:32:10;2.33;;;1.77;;
6725;SDS011;3400;48.506;11.692;2023-07-13T13:34:39;3.13;;;1.70;;
6725;SDS011;3400;48.506;11.692;2023-07-13T13:37:10;4.57;;;1.50;;
6725;SDS011;3400;48.506;11.692;2023-07-13T13:39:43;2.00;;;1.50;;
6725;SDS011;3400;48.506;11.692;2023-07-13T13:42:11;1.47;;;1.47;;
6725;SDS011;3400;48.506;11.692;2023-07-13T13:44:39;3.97;;;1.60;;
6725;SDS011;3400;48.506;11.692;2023-07-13T13:47:15;2.38;;;1.73;;
6725;SDS011;3400;48.506;11.692;2023-07-13T13:49:46;4.73;;;1.60;;
6725;SDS011;3400;48.506;11.692;2023-07-13T13:52:13;5.20;;;1.70;;
6725;SDS011;3400;48.506;11.692;2023-07-13T13:54:41;2.40;;;1.60;;
6725;SDS011;3400;48.506;11.692;2023-07-13T13:57:10;3.03;;;1.43;;
6725;SDS011;3400;48.506;11.692;2023-07-13T13:59:38;3.90;;;1.50;;
6725;SDS011;3400;48.506;11.692;2023-07-13T14:02:11;2.63;;;1.43;;
6725;SDS011;3400;48.506;11.692;2023-07-13T14:04:49;2.63;;;1.60;;
6725;SDS011;3400;48.506;11.692;2023-07-13T14:07:18;2.50;;;1.23;;
6725;SDS011;3400;48.506;11.692;2023-07-13T14:09:46;2.43;;;1.53;;
6725;SDS011;3400;48.506;11.692;2023-07-13T14:12:14;2.13;;;1.43;;
6725;SDS011;3400;48.506;11.692;2023-07-13T14:14:41;4.40;;;2.00;;
6725;SDS011;3400;48.506;11.692;2023-07-13T14:17:13;1.57;;;1.37;;
6725;SDS011;3400;48.506;11.692;2023-07-13T14:19:48;3.67;;;1.63;;
6725;SDS011;3400;48.506;11.692;2023-07-13T14:22:22;5.03;;;1.70;;
6725;SDS011;3400;48.506;11.692;2023-07-13T14:24:51;3.33;;;1.63;;
6725;SDS011;3400;48.506;11.692;2023-07-13T14:27:19;2.60;;;1.70;;
6725;SDS011;3400;48.506;11.692;2023-07-13T14:29:46;2.20;;;1.67;;
6725;SDS011;3400;48.506;11.692;2023-07-13T14:32:14;1.50;;;1.40;;
6725;SDS011;3400;48.506;11.692;2023-07-13T14:34:42;3.60;;;1.50;;
6725;SDS011;3400;48.506;11.692;2023-07-13T14:37:13;2.87;;;1.50;;
6725;SDS011;3400;48.506;11.692;2023-07-13T14:39:42;1.87;;;1.33;;
6725;SDS011;3400;48.506;11.692;2023-07-13T14:42:10;2.97;;;1.20;;
6725;SDS011;3400;48.506;11.692;2023-07-13T14:44:38;1.87;;;1.23;;
6725;SDS011;3400;48.506;11.692;2023-07-13T14:47:06;3.60;;;1.50;;
6725;SDS011;3400;48.506;11.692;2023-07-13T14:49:35;1.70;;;1.60;;
6725;SDS011;3400;48.506;11.692;2023-07-13T14:52:08;1.73;;;1.30;;
6725;SDS011;3400;48.506;11.692;2023-07-13T14:54:39;2.33;;;1.60;;
6725;SDS011;3400;48.506;11.692;2023-07-13T14:57:09;2.20;;;1.40;;
6725;SDS011;3400;48.506;11.692;2023-07-13T14:59:37;1.93;;;1.73;;
6725;SDS011;3400;48.506;11.692;2023-07-13T15:02:12;2.40;;;1.53;;
6725;SDS011;3400;48.506;11.692;2023-07-13T15:04:41;1.53;;;1.13;;
6725;SDS011;3400;48.506;11.692;2023-07-13T15:07:09;2.27;;;1.70;;
6725;SDS011;3400;48.506;11.692;2023-07-13T15:09:39;3.63;;;1.57;;
6725;SDS011;3400;48.506;11.692;2023-07-13T15:12:07;2.53;;;1.67;;
6725;SDS011;3400;48.506;11.692;2023-07-13T15:14:34;2.27;;;1.43;;
6725;SDS011;3400;48.506;11.692;2023-07-13T15:17:02;3.00;;;1.50;;